Terminal Aerodrome Forecast
Issued by NWS

Home | Current Version | Previous Version | Text Only | Print | Product List | Glossary On
Versions: 1 2 3 4 5 6 7 8 9 10 11 12 13 14
000
FTUS45 KABQ 061700
TAFAEG
TAF
KAEG 061732Z 0618/0718 26010G18KT P6SM SCT050 SCT090
     FM061900 26012G20KT P6SM VCSH SCT050 BKN100
     FM062100 26012G20KT P6SM VCTS SCT050CB BKN100
      TEMPO 0621/0701 VRB18G28KT BKN050CB
     FM070200 27007KT P6SM SCT050 SCT100
     FM070800 32006KT P6SM SCT040 SCT120
     FM071600 17006KT P6SM FEW050=

USA.gov is the U.S. government's official web portal to all federal, state and local government web resources and services.